createdAt,value
2019-03-31T00:02:19.591Z,101726.91
2019-03-31T00:07:08.332Z,101732.66
2019-03-31T00:12:00.218Z,101732.36
2019-03-31T00:16:54.135Z,101732.87
2019-03-31T00:21:45.696Z,101726.59
2019-03-31T00:26:37.762Z,101735.05
2019-03-31T00:31:32.732Z,101744.52
2019-03-31T00:36:23.884Z,101745.64
2019-03-31T00:41:16.821Z,101747.86
2019-03-31T00:46:08.470Z,101746.06
2019-03-31T00:51:00.250Z,101754.67
2019-03-31T00:55:52.169Z,101751.34
2019-03-31T01:00:44.222Z,101751.82
2019-03-31T01:05:37.121Z,101749.32
2019-03-31T01:10:31.356Z,101747.17
2019-03-31T01:15:22.929Z,101753.16
2019-03-31T01:20:15.357Z,101748.23
2019-03-31T01:25:05.399Z,101743.61
2019-03-31T01:29:57.645Z,101746.67
2019-03-31T01:34:56.418Z,101751.63
2019-03-31T01:45:36.303Z,101763.51
2019-03-31T01:50:28.922Z,101769.59
2019-03-31T01:55:27.274Z,101766.53
2019-03-31T02:00:17.134Z,101763.72
2019-03-31T02:05:09.535Z,101763.17
2019-03-31T02:09:59.263Z,101766.30
2019-03-31T02:14:49.426Z,101775.48
2019-03-31T02:19:40.319Z,101765.95
2019-03-31T02:24:30.237Z,101763.55
2019-03-31T02:29:21.545Z,101757.91
2019-03-31T02:34:11.260Z,101754.19
2019-03-31T02:39:02.025Z,101755.96
2019-03-31T02:43:51.397Z,101763.16
2019-03-31T02:48:41.432Z,101766.27
2019-03-31T02:53:31.611Z,101763.62
2019-03-31T02:58:21.478Z,101771.58
2019-03-31T03:03:11.740Z,101767.53
2019-03-31T03:08:02.035Z,101766.22
2019-03-31T03:12:51.533Z,101764.50
2019-03-31T03:17:43.739Z,101753.89
2019-03-31T03:22:33.570Z,101761.83
2019-03-31T03:27:23.766Z,101766.52
2019-03-31T03:32:13.937Z,101774.92
2019-03-31T03:37:02.539Z,101770.00
2019-03-31T03:41:52.243Z,101786.48
2019-03-31T03:46:42.105Z,101795.17
2019-03-31T03:51:31.378Z,101794.35
2019-03-31T03:56:21.205Z,101796.70
2019-03-31T04:01:13.427Z,101798.61
2019-03-31T04:06:04.209Z,101806.33
2019-03-31T04:10:56.246Z,101809.11
2019-03-31T04:15:48.325Z,101809.18
2019-03-31T04:20:41.286Z,101814.13
2019-03-31T04:25:33.319Z,101812.41
2019-03-31T04:30:25.346Z,101819.31
2019-03-31T04:35:17.159Z,101830.34
2019-03-31T04:40:09.018Z,101820.16
2019-03-31T04:45:00.437Z,101821.35
2019-03-31T04:49:50.564Z,101829.98
2019-03-31T04:54:41.160Z,101832.66
2019-03-31T04:59:31.060Z,101833.00
2019-03-31T05:04:21.212Z,101843.17
2019-03-31T05:09:12.541Z,101848.11
2019-03-31T05:14:04.494Z,101845.16
2019-03-31T05:18:54.224Z,101851.77
2019-03-31T05:23:43.290Z,101854.13
2019-03-31T05:28:35.535Z,101861.05
2019-03-31T05:33:25.360Z,101857.38
2019-03-31T05:38:17.281Z,101859.58
2019-03-31T05:43:11.335Z,101867.77
2019-03-31T05:48:01.477Z,101871.00
2019-03-31T05:52:51.538Z,101870.77
2019-03-31T05:57:41.516Z,101885.45
2019-03-31T06:02:32.147Z,101886.75
2019-03-31T06:07:26.541Z,101898.80
2019-03-31T06:12:16.093Z,101905.63
2019-03-31T06:17:05.786Z,101923.03
2019-03-31T06:21:55.062Z,101935.08
2019-03-31T06:26:44.942Z,101938.23
2019-03-31T06:31:35.187Z,101935.47
2019-03-31T06:36:24.713Z,101941.04
2019-03-31T06:41:13.004Z,101947.12
2019-03-31T06:46:03.170Z,101951.25
2019-03-31T06:50:53.135Z,101952.33
2019-03-31T06:55:45.035Z,101958.86
2019-03-31T07:00:37.047Z,101968.53
2019-03-31T07:05:29.013Z,101970.51
2019-03-31T07:10:21.140Z,101981.63
2019-03-31T07:15:12.377Z,101991.39
2019-03-31T07:20:04.626Z,101993.28
2019-03-31T07:24:56.730Z,101998.02
2019-03-31T07:29:48.173Z,102002.43
2019-03-31T07:34:39.614Z,102012.59
2019-03-31T07:39:31.786Z,102013.64
2019-03-31T07:44:23.255Z,102013.47
2019-03-31T07:49:15.070Z,102012.33
2019-03-31T07:54:06.035Z,102023.80
2019-03-31T07:58:57.863Z,102038.94
2019-03-31T08:03:47.113Z,102043.59
2019-03-31T08:08:38.376Z,102050.42
2019-03-31T08:13:28.165Z,102047.90
2019-03-31T08:18:17.805Z,102046.39
2019-03-31T08:23:07.025Z,102055.95
2019-03-31T08:27:56.879Z,102063.42
2019-03-31T08:32:47.265Z,102070.84
2019-03-31T08:37:37.871Z,102070.92
2019-03-31T08:42:29.024Z,102075.53
2019-03-31T08:47:18.516Z,102075.56
2019-03-31T08:52:08.773Z,102079.98
2019-03-31T08:56:59.167Z,102077.33
2019-03-31T09:01:50.589Z,102070.30
2019-03-31T09:06:43.482Z,102074.78
2019-03-31T09:11:34.419Z,102079.14
2019-03-31T09:16:25.632Z,102087.13
2019-03-31T09:21:16.781Z,102085.64
2019-03-31T09:26:08.017Z,102091.42
2019-03-31T09:30:58.522Z,102094.97
2019-03-31T09:35:49.183Z,102099.89
2019-03-31T09:40:39.927Z,102098.27
2019-03-31T09:45:31.048Z,102098.69
2019-03-31T09:50:21.765Z,102090.30
2019-03-31T09:55:11.993Z,102102.09
2019-03-31T10:00:04.088Z,102103.23
2019-03-31T10:04:55.859Z,102103.67
2019-03-31T10:09:46.263Z,102111.52
2019-03-31T10:14:37.886Z,102112.63
2019-03-31T10:19:29.828Z,102116.20
2019-03-31T10:24:20.355Z,102117.08
2019-03-31T10:29:10.761Z,102117.86
2019-03-31T10:34:01.411Z,102112.50
2019-03-31T10:38:53.517Z,102123.51
2019-03-31T10:43:44.538Z,102127.95
2019-03-31T10:48:35.007Z,102119.77
2019-03-31T10:53:26.022Z,102117.09
2019-03-31T10:58:17.337Z,102104.13
2019-03-31T11:03:09.507Z,102093.18
2019-03-31T11:08:01.451Z,102098.27
2019-03-31T11:12:53.784Z,102099.15
2019-03-31T11:17:44.734Z,102102.66
2019-03-31T11:22:36.526Z,102101.77
2019-03-31T11:27:28.097Z,102103.74
2019-03-31T11:32:19.578Z,102092.59
2019-03-31T11:37:15.656Z,102092.83
2019-03-31T11:42:05.832Z,102088.53
2019-03-31T11:46:59.117Z,102096.36
2019-03-31T11:51:49.044Z,102091.88
2019-03-31T11:56:40.504Z,102085.23
2019-03-31T12:01:32.083Z,102086.59
2019-03-31T12:06:23.643Z,102085.24
2019-03-31T12:11:13.996Z,102088.34
2019-03-31T12:16:04.768Z,102081.81
2019-03-31T12:20:55.110Z,102075.91
2019-03-31T12:25:45.890Z,102076.36
2019-03-31T12:30:36.306Z,102066.36
2019-03-31T12:35:25.941Z,102065.00
2019-03-31T12:40:17.351Z,102058.30
2019-03-31T12:45:07.681Z,102066.24
2019-03-31T12:49:59.189Z,102054.61
2019-03-31T12:54:52.336Z,102052.66
2019-03-31T12:59:45.193Z,102054.27
2019-03-31T13:04:34.953Z,102044.02
2019-03-31T13:09:26.212Z,102038.67
2019-03-31T13:14:18.042Z,102039.31
2019-03-31T13:19:09.102Z,102037.50
2019-03-31T13:23:58.842Z,102049.14
2019-03-31T13:28:49.595Z,102038.05
2019-03-31T13:33:41.150Z,102034.30
2019-03-31T13:38:31.802Z,102021.30
2019-03-31T13:43:23.391Z,102025.08
2019-03-31T13:48:14.777Z,102023.27
2019-03-31T13:53:06.207Z,102030.50
2019-03-31T13:58:08.083Z,102021.18
2019-03-31T14:02:57.968Z,102023.80
2019-03-31T14:07:50.048Z,102021.62
2019-03-31T14:12:42.167Z,102008.20
2019-03-31T14:17:32.401Z,102008.37
2019-03-31T14:22:22.703Z,102005.80
2019-03-31T14:27:12.912Z,102002.21
2019-03-31T14:32:04.123Z,102006.14
2019-03-31T14:36:55.197Z,102011.55
2019-03-31T14:41:45.829Z,102005.41
2019-03-31T14:46:35.592Z,101999.47
2019-03-31T14:51:26.224Z,101992.61
2019-03-31T14:56:18.291Z,101995.39
2019-03-31T15:01:09.160Z,102007.69
2019-03-31T15:05:59.667Z,102007.93
2019-03-31T15:10:49.903Z,102004.80
2019-03-31T15:15:40.287Z,102003.17
